sensor_id;sensor_type;location;lat;lon;timestamp;P1;durP1;ratioP1;P2;durP2;ratioP2
22144;SDS011;11238;48.730;11.566;2023-12-20T00:00:34;8.00;;;5.78;;
22144;SDS011;11238;48.730;11.566;2023-12-20T00:03:03;8.15;;;5.05;;
22144;SDS011;11238;48.730;11.566;2023-12-20T00:05:29;8.98;;;5.60;;
22144;SDS011;11238;48.730;11.566;2023-12-20T00:07:57;8.48;;;5.28;;
22144;SDS011;11238;48.730;11.566;2023-12-20T00:10:22;9.05;;;5.22;;
22144;SDS011;11238;48.730;11.566;2023-12-20T00:12:48;8.30;;;5.15;;
22144;SDS011;11238;48.730;11.566;2023-12-20T00:15:14;7.70;;;5.22;;
22144;SDS011;11238;48.730;11.566;2023-12-20T00:17:39;11.55;;;5.97;;
22144;SDS011;11238;48.730;11.566;2023-12-20T00:20:05;8.23;;;5.35;;
22144;SDS011;11238;48.730;11.566;2023-12-20T00:22:31;6.22;;;4.55;;
22144;SDS011;11238;48.730;11.566;2023-12-20T00:24:57;6.35;;;4.50;;
22144;SDS011;11238;48.730;11.566;2023-12-20T00:27:23;5.85;;;4.40;;
22144;SDS011;11238;48.730;11.566;2023-12-20T00:29:48;7.07;;;4.60;;
22144;SDS011;11238;48.730;11.566;2023-12-20T00:32:15;7.32;;;5.07;;
22144;SDS011;11238;48.730;11.566;2023-12-20T00:34:42;7.43;;;4.80;;
22144;SDS011;11238;48.730;11.566;2023-12-20T00:37:08;6.43;;;4.35;;
22144;SDS011;11238;48.730;11.566;2023-12-20T00:39:33;6.65;;;4.25;;
22144;SDS011;11238;48.730;11.566;2023-12-20T00:41:59;7.50;;;4.13;;
22144;SDS011;11238;48.730;11.566;2023-12-20T00:44:25;7.15;;;4.20;;
22144;SDS011;11238;48.730;11.566;2023-12-20T00:46:51;5.88;;;4.13;;
22144;SDS011;11238;48.730;11.566;2023-12-20T00:49:17;5.22;;;3.83;;
22144;SDS011;11238;48.730;11.566;2023-12-20T00:51:43;5.57;;;3.72;;
22144;SDS011;11238;48.730;11.566;2023-12-20T00:54:08;6.50;;;3.67;;
22144;SDS011;11238;48.730;11.566;2023-12-20T00:56:34;5.68;;;3.90;;
22144;SDS011;11238;48.730;11.566;2023-12-20T00:59:00;5.07;;;3.67;;
22144;SDS011;11238;48.730;11.566;2023-12-20T01:01:26;4.32;;;3.10;;
22144;SDS011;11238;48.730;11.566;2023-12-20T01:03:52;5.40;;;3.63;;
22144;SDS011;11238;48.730;11.566;2023-12-20T01:06:18;5.45;;;3.40;;
22144;SDS011;11238;48.730;11.566;2023-12-20T01:08:44;4.80;;;3.75;;
22144;SDS011;11238;48.730;11.566;2023-12-20T01:11:10;6.10;;;3.50;;
22144;SDS011;11238;48.730;11.566;2023-12-20T01:13:35;4.65;;;3.35;;
22144;SDS011;11238;48.730;11.566;2023-12-20T01:16:01;4.63;;;3.20;;
22144;SDS011;11238;48.730;11.566;2023-12-20T01:18:27;5.18;;;3.25;;
22144;SDS011;11238;48.730;11.566;2023-12-20T01:20:53;6.72;;;3.08;;
22144;SDS011;11238;48.730;11.566;2023-12-20T01:23:19;4.68;;;3.53;;
22144;SDS011;11238;48.730;11.566;2023-12-20T01:25:44;4.35;;;3.20;;
22144;SDS011;11238;48.730;11.566;2023-12-20T01:28:10;4.63;;;3.13;;
22144;SDS011;11238;48.730;11.566;2023-12-20T01:30:36;4.38;;;3.10;;
22144;SDS011;11238;48.730;11.566;2023-12-20T01:33:01;5.60;;;3.10;;
22144;SDS011;11238;48.730;11.566;2023-12-20T01:35:27;4.70;;;3.20;;
22144;SDS011;11238;48.730;11.566;2023-12-20T01:37:53;4.10;;;2.95;;
22144;SDS011;11238;48.730;11.566;2023-12-20T01:40:22;4.45;;;3.42;;
22144;SDS011;11238;48.730;11.566;2023-12-20T01:42:57;4.28;;;3.28;;
22144;SDS011;11238;48.730;11.566;2023-12-20T01:45:24;4.30;;;3.22;;
22144;SDS011;11238;48.730;11.566;2023-12-20T01:47:50;4.38;;;3.08;;
22144;SDS011;11238;48.730;11.566;2023-12-20T01:50:15;4.00;;;3.35;;
22144;SDS011;11238;48.730;11.566;2023-12-20T01:52:42;4.35;;;3.55;;
22144;SDS011;11238;48.730;11.566;2023-12-20T01:55:08;5.60;;;3.55;;
22144;SDS011;11238;48.730;11.566;2023-12-20T01:57:41;5.07;;;3.30;;
22144;SDS011;11238;48.730;11.566;2023-12-20T02:00:08;5.88;;;3.63;;
22144;SDS011;11238;48.730;11.566;2023-12-20T02:02:36;5.75;;;3.72;;
22144;SDS011;11238;48.730;11.566;2023-12-20T02:05:08;6.45;;;3.95;;
22144;SDS011;11238;48.730;11.566;2023-12-20T02:07:34;5.30;;;3.72;;
22144;SDS011;11238;48.730;11.566;2023-12-20T02:10:00;5.47;;;3.40;;
22144;SDS011;11238;48.730;11.566;2023-12-20T02:12:26;5.22;;;3.40;;
22144;SDS011;11238;48.730;11.566;2023-12-20T02:14:52;5.47;;;3.38;;
22144;SDS011;11238;48.730;11.566;2023-12-20T02:17:19;5.00;;;3.55;;
22144;SDS011;11238;48.730;11.566;2023-12-20T02:19:45;6.43;;;3.78;;
22144;SDS011;11238;48.730;11.566;2023-12-20T02:22:11;7.15;;;3.80;;
22144;SDS011;11238;48.730;11.566;2023-12-20T02:24:37;4.55;;;3.65;;
22144;SDS011;11238;48.730;11.566;2023-12-20T02:27:03;5.25;;;3.47;;
22144;SDS011;11238;48.730;11.566;2023-12-20T02:29:32;6.82;;;3.67;;
22144;SDS011;11238;48.730;11.566;2023-12-20T02:31:58;6.45;;;4.03;;
22144;SDS011;11238;48.730;11.566;2023-12-20T02:34:24;4.93;;;3.50;;
22144;SDS011;11238;48.730;11.566;2023-12-20T02:36:50;5.80;;;3.72;;
22144;SDS011;11238;48.730;11.566;2023-12-20T02:39:16;5.93;;;4.05;;
22144;SDS011;11238;48.730;11.566;2023-12-20T02:41:42;5.55;;;4.07;;
22144;SDS011;11238;48.730;11.566;2023-12-20T02:44:07;5.82;;;3.92;;
22144;SDS011;11238;48.730;11.566;2023-12-20T02:46:33;5.38;;;3.80;;
22144;SDS011;11238;48.730;11.566;2023-12-20T02:48:58;4.80;;;3.63;;
22144;SDS011;11238;48.730;11.566;2023-12-20T02:51:24;4.03;;;3.40;;
22144;SDS011;11238;48.730;11.566;2023-12-20T02:53:50;4.88;;;3.45;;
22144;SDS011;11238;48.730;11.566;2023-12-20T02:56:15;6.40;;;3.55;;
22144;SDS011;11238;48.730;11.566;2023-12-20T02:58:41;4.93;;;3.20;;
22144;SDS011;11238;48.730;11.566;2023-12-20T03:01:06;4.43;;;3.20;;
22144;SDS011;11238;48.730;11.566;2023-12-20T03:03:32;3.75;;;2.72;;
22144;SDS011;11238;48.730;11.566;2023-12-20T03:05:58;4.07;;;2.78;;
22144;SDS011;11238;48.730;11.566;2023-12-20T03:08:24;3.95;;;3.00;;
22144;SDS011;11238;48.730;11.566;2023-12-20T03:10:50;3.17;;;2.20;;
22144;SDS011;11238;48.730;11.566;2023-12-20T03:13:16;3.75;;;2.78;;
22144;SDS011;11238;48.730;11.566;2023-12-20T03:15:41;3.97;;;2.75;;
22144;SDS011;11238;48.730;11.566;2023-12-20T03:18:07;4.93;;;2.60;;
22144;SDS011;11238;48.730;11.566;2023-12-20T03:20:33;3.78;;;2.70;;
22144;SDS011;11238;48.730;11.566;2023-12-20T03:23:02;3.20;;;2.47;;
22144;SDS011;11238;48.730;11.566;2023-12-20T03:25:28;3.75;;;2.70;;
22144;SDS011;11238;48.730;11.566;2023-12-20T03:27:54;2.65;;;2.10;;
22144;SDS011;11238;48.730;11.566;2023-12-20T03:30:20;2.60;;;2.20;;
22144;SDS011;11238;48.730;11.566;2023-12-20T03:32:46;2.75;;;2.28;;
22144;SDS011;11238;48.730;11.566;2023-12-20T03:35:12;20.00;;;2.28;;
22144;SDS011;11238;48.730;11.566;2023-12-20T03:37:39;4.13;;;2.08;;
22144;SDS011;11238;48.730;11.566;2023-12-20T03:40:04;2.75;;;2.50;;
22144;SDS011;11238;48.730;11.566;2023-12-20T03:42:30;2.28;;;2.08;;
22144;SDS011;11238;48.730;11.566;2023-12-20T03:44:56;3.60;;;2.28;;
22144;SDS011;11238;48.730;11.566;2023-12-20T03:47:22;2.50;;;2.00;;
22144;SDS011;11238;48.730;11.566;2023-12-20T03:49:47;2.42;;;2.13;;
22144;SDS011;11238;48.730;11.566;2023-12-20T03:52:13;2.90;;;2.28;;
22144;SDS011;11238;48.730;11.566;2023-12-20T03:54:39;5.13;;;2.15;;
22144;SDS011;11238;48.730;11.566;2023-12-20T03:57:08;2.58;;;1.95;;
22144;SDS011;11238;48.730;11.566;2023-12-20T03:59:37;3.15;;;2.40;;
22144;SDS011;11238;48.730;11.566;2023-12-20T04:02:03;2.75;;;2.22;;
22144;SDS011;11238;48.730;11.566;2023-12-20T04:04:30;3.72;;;2.55;;
22144;SDS011;11238;48.730;11.566;2023-12-20T04:06:55;3.00;;;2.10;;
22144;SDS011;11238;48.730;11.566;2023-12-20T04:09:21;3.28;;;2.05;;
22144;SDS011;11238;48.730;11.566;2023-12-20T04:11:47;4.20;;;2.53;;
22144;SDS011;11238;48.730;11.566;2023-12-20T04:14:13;4.13;;;2.63;;
22144;SDS011;11238;48.730;11.566;2023-12-20T04:16:39;3.45;;;2.40;;
22144;SDS011;11238;48.730;11.566;2023-12-20T04:19:05;2.92;;;2.60;;
22144;SDS011;11238;48.730;11.566;2023-12-20T04:21:31;6.93;;;2.83;;
22144;SDS011;11238;48.730;11.566;2023-12-20T04:23:57;7.00;;;3.10;;
22144;SDS011;11238;48.730;11.566;2023-12-20T04:26:23;5.45;;;2.50;;
22144;SDS011;11238;48.730;11.566;2023-12-20T04:28:49;4.10;;;2.80;;
22144;SDS011;11238;48.730;11.566;2023-12-20T04:31:15;3.90;;;2.67;;
22144;SDS011;11238;48.730;11.566;2023-12-20T04:33:40;4.00;;;2.70;;
22144;SDS011;11238;48.730;11.566;2023-12-20T04:36:06;4.35;;;2.67;;
22144;SDS011;11238;48.730;11.566;2023-12-20T04:38:34;3.63;;;2.60;;
22144;SDS011;11238;48.730;11.566;2023-12-20T04:40:59;3.80;;;2.90;;
22144;SDS011;11238;48.730;11.566;2023-12-20T04:43:25;3.03;;;2.63;;
22144;SDS011;11238;48.730;11.566;2023-12-20T04:45:51;4.00;;;2.72;;
22144;SDS011;11238;48.730;11.566;2023-12-20T04:48:17;2.63;;;2.38;;
22144;SDS011;11238;48.730;11.566;2023-12-20T04:50:42;5.43;;;3.40;;
22144;SDS011;11238;48.730;11.566;2023-12-20T04:53:08;4.78;;;2.97;;
22144;SDS011;11238;48.730;11.566;2023-12-20T04:55:34;4.47;;;2.65;;
22144;SDS011;11238;48.730;11.566;2023-12-20T04:58:00;3.83;;;2.83;;
22144;SDS011;11238;48.730;11.566;2023-12-20T05:00:26;3.22;;;2.67;;
22144;SDS011;11238;48.730;11.566;2023-12-20T05:02:52;5.30;;;2.95;;
22144;SDS011;11238;48.730;11.566;2023-12-20T05:05:18;5.70;;;2.95;;
22144;SDS011;11238;48.730;11.566;2023-12-20T05:07:44;8.20;;;3.00;;
22144;SDS011;11238;48.730;11.566;2023-12-20T05:10:09;5.68;;;3.47;;
22144;SDS011;11238;48.730;11.566;2023-12-20T05:12:35;4.80;;;3.05;;
22144;SDS011;11238;48.730;11.566;2023-12-20T05:15:01;4.15;;;2.90;;
22144;SDS011;11238;48.730;11.566;2023-12-20T05:17:27;5.05;;;3.00;;
22144;SDS011;11238;48.730;11.566;2023-12-20T05:19:53;5.60;;;3.08;;
22144;SDS011;11238;48.730;11.566;2023-12-20T05:22:19;3.60;;;2.97;;
22144;SDS011;11238;48.730;11.566;2023-12-20T05:24:45;4.45;;;2.92;;
22144;SDS011;11238;48.730;11.566;2023-12-20T05:27:11;3.65;;;2.80;;
22144;SDS011;11238;48.730;11.566;2023-12-20T05:29:37;4.45;;;3.22;;
22144;SDS011;11238;48.730;11.566;2023-12-20T05:32:04;5.97;;;3.20;;
22144;SDS011;11238;48.730;11.566;2023-12-20T05:34:30;4.70;;;3.13;;
22144;SDS011;11238;48.730;11.566;2023-12-20T05:36:57;4.28;;;2.90;;
22144;SDS011;11238;48.730;11.566;2023-12-20T05:39:23;4.72;;;3.33;;
22144;SDS011;11238;48.730;11.566;2023-12-20T05:41:49;2.92;;;2.30;;
22144;SDS011;11238;48.730;11.566;2023-12-20T05:44:15;3.58;;;2.70;;
22144;SDS011;11238;48.730;11.566;2023-12-20T05:46:41;3.15;;;2.35;;
22144;SDS011;11238;48.730;11.566;2023-12-20T05:49:06;3.58;;;2.58;;
22144;SDS011;11238;48.730;11.566;2023-12-20T05:51:32;3.60;;;2.78;;
22144;SDS011;11238;48.730;11.566;2023-12-20T05:53:58;3.90;;;2.30;;
22144;SDS011;11238;48.730;11.566;2023-12-20T05:56:24;3.72;;;2.60;;
22144;SDS011;11238;48.730;11.566;2023-12-20T05:58:50;3.80;;;2.25;;
22144;SDS011;11238;48.730;11.566;2023-12-20T06:01:16;7.10;;;2.55;;
22144;SDS011;11238;48.730;11.566;2023-12-20T06:03:42;2.67;;;2.25;;
22144;SDS011;11238;48.730;11.566;2023-12-20T06:06:08;3.10;;;2.05;;
22144;SDS011;11238;48.730;11.566;2023-12-20T06:08:35;6.63;;;2.40;;
22144;SDS011;11238;48.730;11.566;2023-12-20T06:11:01;4.32;;;2.25;;
22144;SDS011;11238;48.730;11.566;2023-12-20T06:13:27;3.55;;;2.50;;
22144;SDS011;11238;48.730;11.566;2023-12-20T06:15:54;2.40;;;2.20;;
22144;SDS011;11238;48.730;11.566;2023-12-20T06:18:21;4.43;;;2.08;;
22144;SDS011;11238;48.730;11.566;2023-12-20T06:20:46;3.03;;;2.47;;
22144;SDS011;11238;48.730;11.566;2023-12-20T06:23:12;6.13;;;2.90;;
22144;SDS011;11238;48.730;11.566;2023-12-20T06:25:38;3.65;;;2.70;;
22144;SDS011;11238;48.730;11.566;2023-12-20T06:28:04;5.20;;;3.05;;
22144;SDS011;11238;48.730;11.566;2023-12-20T06:30:30;2.92;;;2.55;;
22144;SDS011;11238;48.730;11.566;2023-12-20T06:32:57;3.45;;;2.70;;
22144;SDS011;11238;48.730;11.566;2023-12-20T06:35:23;4.35;;;3.03;;
22144;SDS011;11238;48.730;11.566;2023-12-20T06:37:49;2.97;;;2.63;;
22144;SDS011;11238;48.730;11.566;2023-12-20T06:40:15;4.63;;;3.10;;
22144;SDS011;11238;48.730;11.566;2023-12-20T06:42:41;3.50;;;2.80;;
22144;SDS011;11238;48.730;11.566;2023-12-20T06:45:07;4.13;;;2.83;;
22144;SDS011;11238;48.730;11.566;2023-12-20T06:47:33;4.22;;;3.00;;
22144;SDS011;11238;48.730;11.566;2023-12-20T06:49:58;4.63;;;2.72;;
22144;SDS011;11238;48.730;11.566;2023-12-20T06:52:24;4.93;;;2.72;;
22144;SDS011;11238;48.730;11.566;2023-12-20T06:54:50;3.33;;;2.58;;
22144;SDS011;11238;48.730;11.566;2023-12-20T06:57:16;6.07;;;2.58;;
22144;SDS011;11238;48.730;11.566;2023-12-20T06:59:41;6.07;;;2.92;;
22144;SDS011;11238;48.730;11.566;2023-12-20T07:02:08;2.90;;;2.47;;
22144;SDS011;11238;48.730;11.566;2023-12-20T07:04:34;3.97;;;2.50;;
22144;SDS011;11238;48.730;11.566;2023-12-20T07:07:03;4.13;;;2.63;;
22144;SDS011;11238;48.730;11.566;2023-12-20T07:09:29;5.50;;;2.88;;
22144;SDS011;11238;48.730;11.566;2023-12-20T07:11:55;3.38;;;2.72;;
22144;SDS011;11238;48.730;11.566;2023-12-20T07:14:20;4.00;;;2.72;;
22144;SDS011;11238;48.730;11.566;2023-12-20T07:16:46;4.35;;;3.17;;
22144;SDS011;11238;48.730;11.566;2023-12-20T07:19:12;4.82;;;2.92;;
22144;SDS011;11238;48.730;11.566;2023-12-20T07:21:38;5.13;;;2.90;;
22144;SDS011;11238;48.730;11.566;2023-12-20T07:24:03;3.63;;;2.90;;
22144;SDS011;11238;48.730;11.566;2023-12-20T07:26:29;3.22;;;2.70;;
22144;SDS011;11238;48.730;11.566;2023-12-20T07:28:55;3.35;;;2.97;;
22144;SDS011;11238;48.730;11.566;2023-12-20T07:31:20;3.75;;;2.90;;
22144;SDS011;11238;48.730;11.566;2023-12-20T07:33:46;3.60;;;2.80;;
22144;SDS011;11238;48.730;11.566;2023-12-20T07:36:12;6.72;;;2.83;;
22144;SDS011;11238;48.730;11.566;2023-12-20T07:38:38;5.45;;;2.80;;
22144;SDS011;11238;48.730;11.566;2023-12-20T07:41:05;4.25;;;3.28;;
22144;SDS011;11238;48.730;11.566;2023-12-20T07:43:30;5.00;;;3.05;;
22144;SDS011;11238;48.730;11.566;2023-12-20T07:45:56;3.38;;;2.72;;
22144;SDS011;11238;48.730;11.566;2023-12-20T07:48:22;4.63;;;2.90;;
22144;SDS011;11238;48.730;11.566;2023-12-20T07:50:47;3.90;;;2.95;;
22144;SDS011;11238;48.730;11.566;2023-12-20T07:53:13;4.00;;;2.95;;
22144;SDS011;11238;48.730;11.566;2023-12-20T07:55:39;4.65;;;3.50;;
22144;SDS011;11238;48.730;11.566;2023-12-20T07:58:04;5.45;;;3.20;;
22144;SDS011;11238;48.730;11.566;2023-12-20T08:00:30;4.97;;;3.50;;
22144;SDS011;11238;48.730;11.566;2023-12-20T08:02:56;4.32;;;3.38;;
22144;SDS011;11238;48.730;11.566;2023-12-20T08:05:21;5.65;;;3.88;;
22144;SDS011;11238;48.730;11.566;2023-12-20T08:07:47;7.22;;;3.70;;
22144;SDS011;11238;48.730;11.566;2023-12-20T08:10:13;4.75;;;3.03;;
22144;SDS011;11238;48.730;11.566;2023-12-20T08:12:38;5.50;;;3.15;;
22144;SDS011;11238;48.730;11.566;2023-12-20T08:15:05;5.30;;;3.28;;
22144;SDS011;11238;48.730;11.566;2023-12-20T08:17:31;5.40;;;3.35;;
22144;SDS011;11238;48.730;11.566;2023-12-20T08:19:56;4.90;;;3.35;;
22144;SDS011;11238;48.730;11.566;2023-12-20T08:22:22;5.00;;;3.15;;
22144;SDS011;11238;48.730;11.566;2023-12-20T08:24:48;4.85;;;3.50;;
22144;SDS011;11238;48.730;11.566;2023-12-20T08:27:14;4.10;;;3.15;;
22144;SDS011;11238;48.730;11.566;2023-12-20T08:29:39;6.20;;;3.80;;
22144;SDS011;11238;48.730;11.566;2023-12-20T08:32:05;6.88;;;3.33;;
22144;SDS011;11238;48.730;11.566;2023-12-20T08:34:30;4.45;;;3.47;;
22144;SDS011;11238;48.730;11.566;2023-12-20T08:36:56;4.88;;;3.67;;
22144;SDS011;11238;48.730;11.566;2023-12-20T08:39:22;4.90;;;3.42;;
22144;SDS011;11238;48.730;11.566;2023-12-20T08:41:47;4.40;;;3.08;;
22144;SDS011;11238;48.730;11.566;2023-12-20T08:44:13;5.95;;;2.85;;
22144;SDS011;11238;48.730;11.566;2023-12-20T08:46:39;3.20;;;2.90;;
22144;SDS011;11238;48.730;11.566;2023-12-20T08:49:04;4.15;;;2.65;;
22144;SDS011;11238;48.730;11.566;2023-12-20T08:51:30;3.30;;;2.75;;
22144;SDS011;11238;48.730;11.566;2023-12-20T08:53:56;5.80;;;2.90;;
22144;SDS011;11238;48.730;11.566;2023-12-20T08:56:21;3.22;;;2.47;;
22144;SDS011;11238;48.730;11.566;2023-12-20T08:58:47;3.58;;;2.83;;
22144;SDS011;11238;48.730;11.566;2023-12-20T09:01:13;3.33;;;2.63;;
22144;SDS011;11238;48.730;11.566;2023-12-20T09:03:39;3.38;;;2.60;;
22144;SDS011;11238;48.730;11.566;2023-12-20T09:06:05;4.45;;;2.65;;
22144;SDS011;11238;48.730;11.566;2023-12-20T09:08:31;4.38;;;2.65;;
22144;SDS011;11238;48.730;11.566;2023-12-20T09:10:57;5.90;;;2.50;;
22144;SDS011;11238;48.730;11.566;2023-12-20T09:13:22;2.85;;;2.47;;
22144;SDS011;11238;48.730;11.566;2023-12-20T09:15:56;5.20;;;2.42;;
22144;SDS011;11238;48.730;11.566;2023-12-20T09:18:22;2.58;;;2.00;;
22144;SDS011;11238;48.730;11.566;2023-12-20T09:20:48;3.38;;;2.10;;
22144;SDS011;11238;48.730;11.566;2023-12-20T09:23:13;3.42;;;2.25;;
22144;SDS011;11238;48.730;11.566;2023-12-20T09:25:39;3.33;;;2.47;;
22144;SDS011;11238;48.730;11.566;2023-12-20T09:28:05;2.67;;;2.10;;
22144;SDS011;11238;48.730;11.566;2023-12-20T09:30:30;5.25;;;1.98;;
22144;SDS011;11238;48.730;11.566;2023-12-20T09:32:57;2.60;;;2.28;;
22144;SDS011;11238;48.730;11.566;2023-12-20T09:35:22;2.35;;;2.10;;
22144;SDS011;11238;48.730;11.566;2023-12-20T09:37:49;2.47;;;2.15;;
22144;SDS011;11238;48.730;11.566;2023-12-20T09:40:15;4.55;;;2.05;;
22144;SDS011;11238;48.730;11.566;2023-12-20T09:45:48;2.20;;;2.00;;
22144;SDS011;11238;48.730;11.566;2023-12-20T09:48:17;3.30;;;2.13;;
22144;SDS011;11238;48.730;11.566;2023-12-20T09:50:44;3.25;;;2.50;;
22144;SDS011;11238;48.730;11.566;2023-12-20T09:53:11;2.42;;;2.00;;
22144;SDS011;11238;48.730;11.566;2023-12-20T09:55:41;2.30;;;2.10;;
22144;SDS011;11238;48.730;11.566;2023-12-20T09:58:07;3.58;;;2.15;;
22144;SDS011;11238;48.730;11.566;2023-12-20T10:00:34;3.63;;;2.47;;
22144;SDS011;11238;48.730;11.566;2023-12-20T10:03:00;2.33;;;2.13;;
22144;SDS011;11238;48.730;11.566;2023-12-20T10:05:30;2.22;;;2.00;;
22144;SDS011;11238;48.730;11.566;2023-12-20T10:07:57;2.55;;;2.13;;
22144;SDS011;11238;48.730;11.566;2023-12-20T10:10:24;2.55;;;2.30;;
22144;SDS011;11238;48.730;11.566;2023-12-20T10:13:06;2.92;;;2.00;;
22144;SDS011;11238;48.730;11.566;2023-12-20T10:17:59;2.30;;;2.10;;
22144;SDS011;11238;48.730;11.566;2023-12-20T10:20:29;3.13;;;2.03;;
22144;SDS011;11238;48.730;11.566;2023-12-20T10:22:56;5.32;;;2.08;;
22144;SDS011;11238;48.730;11.566;2023-12-20T10:25:23;2.38;;;2.00;;
22144;SDS011;11238;48.730;11.566;2023-12-20T10:27:49;2.22;;;2.03;;
22144;SDS011;11238;48.730;11.566;2023-12-20T10:30:33;2.10;;;1.92;;
22144;SDS011;11238;48.730;11.566;2023-12-20T10:32:59;2.28;;;2.08;;
22144;SDS011;11238;48.730;11.566;2023-12-20T10:35:24;2.72;;;2.50;;
22144;SDS011;11238;48.730;11.566;2023-12-20T10:37:51;2.58;;;2.35;;
22144;SDS011;11238;48.730;11.566;2023-12-20T10:40:21;2.22;;;2.03;;
22144;SDS011;11238;48.730;11.566;2023-12-20T10:42:48;2.50;;;2.10;;
22144;SDS011;11238;48.730;11.566;2023-12-20T10:45:15;2.40;;;2.13;;
22144;SDS011;11238;48.730;11.566;2023-12-20T10:47:42;2.22;;;1.60;;
22144;SDS011;11238;48.730;11.566;2023-12-20T10:50:11;2.65;;;1.60;;
22144;SDS011;11238;48.730;11.566;2023-12-20T10:52:37;1.90;;;1.70;;
22144;SDS011;11238;48.730;11.566;2023-12-20T10:55:03;2.42;;;1.67;;
22144;SDS011;11238;48.730;11.566;2023-12-20T10:57:30;2.72;;;1.80;;
22144;SDS011;11238;48.730;11.566;2023-12-20T10:59:55;3.92;;;1.88;;
22144;SDS011;11238;48.730;11.566;2023-12-20T11:02:32;2.30;;;2.05;;
22144;SDS011;11238;48.730;11.566;2023-12-20T11:05:16;2.10;;;1.90;;
22144;SDS011;11238;48.730;11.566;2023-12-20T11:08:01;2.58;;;1.90;;
22144;SDS011;11238;48.730;11.566;2023-12-20T11:10:34;2.30;;;2.10;;
22144;SDS011;11238;48.730;11.566;2023-12-20T11:13:32;2.03;;;1.77;;
22144;SDS011;11238;48.730;11.566;2023-12-20T11:16:02;3.97;;;1.80;;
22144;SDS011;11238;48.730;11.566;2023-12-20T11:18:29;2.10;;;1.90;;
22144;SDS011;11238;48.730;11.566;2023-12-20T11:21:01;2.30;;;1.80;;
22144;SDS011;11238;48.730;11.566;2023-12-20T11:23:29;2.83;;;2.20;;
22144;SDS011;11238;48.730;11.566;2023-12-20T11:25:58;3.55;;;2.08;;
22144;SDS011;11238;48.730;11.566;2023-12-20T11:28:24;1.90;;;1.70;;
22144;SDS011;11238;48.730;11.566;2023-12-20T11:30:52;2.20;;;1.77;;
22144;SDS011;11238;48.730;11.566;2023-12-20T11:33:25;2.08;;;1.90;;
22144;SDS011;11238;48.730;11.566;2023-12-20T11:35:57;2.72;;;2.03;;
22144;SDS011;11238;48.730;11.566;2023-12-20T11:38:35;1.80;;;1.70;;
22144;SDS011;11238;48.730;11.566;2023-12-20T11:41:02;1.98;;;1.70;;
22144;SDS011;11238;48.730;11.566;2023-12-20T11:43:38;2.00;;;1.80;;
22144;SDS011;11238;48.730;11.566;2023-12-20T11:46:04;2.20;;;2.00;;
22144;SDS011;11238;48.730;11.566;2023-12-20T11:48:31;5.22;;;2.30;;
22144;SDS011;11238;48.730;11.566;2023-12-20T11:50:58;2.40;;;2.08;;
22144;SDS011;11238;48.730;11.566;2023-12-20T11:53:24;1.92;;;1.70;;
22144;SDS011;11238;48.730;11.566;2023-12-20T11:55:50;1.58;;;1.48;;
22144;SDS011;11238;48.730;11.566;2023-12-20T11:58:16;2.83;;;1.70;;
22144;SDS011;11238;48.730;11.566;2023-12-20T12:00:42;2.22;;;2.03;;
22144;SDS011;11238;48.730;11.566;2023-12-20T12:03:08;2.13;;;1.80;;
22144;SDS011;11238;48.730;11.566;2023-12-20T12:05:34;2.00;;;1.80;;
22144;SDS011;11238;48.730;11.566;2023-12-20T12:08:01;2.08;;;1.88;;
22144;SDS011;11238;48.730;11.566;2023-12-20T12:10:28;2.38;;;2.13;;
22144;SDS011;11238;48.730;11.566;2023-12-20T12:12:54;1.92;;;1.75;;
22144;SDS011;11238;48.730;11.566;2023-12-20T12:15:20;2.20;;;2.00;;
22144;SDS011;11238;48.730;11.566;2023-12-20T12:17:53;1.98;;;1.80;;
22144;SDS011;11238;48.730;11.566;2023-12-20T12:20:20;3.08;;;1.70;;
22144;SDS011;11238;48.730;11.566;2023-12-20T12:22:46;1.52;;;1.42;;
22144;SDS011;11238;48.730;11.566;2023-12-20T12:25:16;1.52;;;1.42;;
22144;SDS011;11238;48.730;11.566;2023-12-20T12:27:42;1.88;;;1.67;;
22144;SDS011;11238;48.730;11.566;2023-12-20T12:30:08;2.30;;;1.67;;
22144;SDS011;11238;48.730;11.566;2023-12-20T12:32:35;1.67;;;1.55;;
22144;SDS011;11238;48.730;11.566;2023-12-20T12:35:04;4.00;;;1.70;;
22144;SDS011;11238;48.730;11.566;2023-12-20T12:37:34;3.97;;;1.60;;
22144;SDS011;11238;48.730;11.566;2023-12-20T12:40:03;5.00;;;1.80;;
22144;SDS011;11238;48.730;11.566;2023-12-20T12:42:30;5.32;;;1.42;;
22144;SDS011;11238;48.730;11.566;2023-12-20T12:44:55;4.78;;;1.67;;
22144;SDS011;11238;48.730;11.566;2023-12-20T12:47:21;3.78;;;1.42;;
22144;SDS011;11238;48.730;11.566;2023-12-20T12:49:47;3.15;;;1.40;;
22144;SDS011;11238;48.730;11.566;2023-12-20T12:52:16;1.30;;;1.20;;
22144;SDS011;11238;48.730;11.566;2023-12-20T12:54:41;2.75;;;1.55;;
22144;SDS011;11238;48.730;11.566;2023-12-20T12:57:07;4.28;;;1.60;;
22144;SDS011;11238;48.730;11.566;2023-12-20T12:59:33;2.25;;;1.73;;
22144;SDS011;11238;48.730;11.566;2023-12-20T13:01:59;4.15;;;1.58;;
22144;SDS011;11238;48.730;11.566;2023-12-20T13:04:25;1.77;;;1.60;;
22144;SDS011;11238;48.730;11.566;2023-12-20T13:06:51;2.05;;;1.52;;
22144;SDS011;11238;48.730;11.566;2023-12-20T13:09:16;4.28;;;1.60;;
22144;SDS011;11238;48.730;11.566;2023-12-20T13:11:44;4.05;;;1.50;;
22144;SDS011;11238;48.730;11.566;2023-12-20T13:14:09;5.13;;;1.60;;
22144;SDS011;11238;48.730;11.566;2023-12-20T13:16:40;1.90;;;1.30;;
22144;SDS011;11238;48.730;11.566;2023-12-20T13:19:06;3.13;;;1.60;;
22144;SDS011;11238;48.730;11.566;2023-12-20T13:21:32;3.75;;;1.88;;
22144;SDS011;11238;48.730;11.566;2023-12-20T13:23:58;6.40;;;1.73;;
22144;SDS011;11238;48.730;11.566;2023-12-20T13:26:24;4.78;;;1.50;;
22144;SDS011;11238;48.730;11.566;2023-12-20T13:28:50;5.47;;;1.50;;
22144;SDS011;11238;48.730;11.566;2023-12-20T13:31:15;2.03;;;1.40;;
22144;SDS011;11238;48.730;11.566;2023-12-20T13:33:41;2.53;;;1.75;;
22144;SDS011;11238;48.730;11.566;2023-12-20T13:36:06;1.30;;;1.10;;
22144;SDS011;11238;48.730;11.566;2023-12-20T13:38:32;2.55;;;1.38;;
22144;SDS011;11238;48.730;11.566;2023-12-20T13:40:58;2.22;;;1.50;;
22144;SDS011;11238;48.730;11.566;2023-12-20T13:43:24;4.85;;;1.25;;
22144;SDS011;11238;48.730;11.566;2023-12-20T13:45:50;2.63;;;1.20;;
22144;SDS011;11238;48.730;11.566;2023-12-20T13:48:16;1.80;;;1.30;;
22144;SDS011;11238;48.730;11.566;2023-12-20T13:50:41;4.32;;;1.48;;
22144;SDS011;11238;48.730;11.566;2023-12-20T13:53:07;4.00;;;1.20;;
22144;SDS011;11238;48.730;11.566;2023-12-20T13:55:33;2.95;;;1.40;;
22144;SDS011;11238;48.730;11.566;2023-12-20T13:57:58;3.78;;;1.52;;
22144;SDS011;11238;48.730;11.566;2023-12-20T14:00:24;1.40;;;1.30;;
22144;SDS011;11238;48.730;11.566;2023-12-20T14:02:50;2.85;;;1.38;;
22144;SDS011;11238;48.730;11.566;2023-12-20T14:05:16;2.80;;;1.30;;
22144;SDS011;11238;48.730;11.566;2023-12-20T14:07:45;2.80;;;1.40;;
22144;SDS011;11238;48.730;11.566;2023-12-20T14:10:11;2.28;;;1.40;;
22144;SDS011;11238;48.730;11.566;2023-12-20T14:12:38;3.08;;;1.70;;
22144;SDS011;11238;48.730;11.566;2023-12-20T14:15:04;3.78;;;1.73;;
22144;SDS011;11238;48.730;11.566;2023-12-20T14:17:36;4.85;;;1.80;;
22144;SDS011;11238;48.730;11.566;2023-12-20T14:20:02;3.17;;;1.50;;
22144;SDS011;11238;48.730;11.566;2023-12-20T14:22:30;4.20;;;1.63;;
22144;SDS011;11238;48.730;11.566;2023-12-20T14:24:55;1.77;;;1.20;;
22144;SDS011;11238;48.730;11.566;2023-12-20T14:27:22;5.03;;;1.38;;
22144;SDS011;11238;48.730;11.566;2023-12-20T14:29:49;2.50;;;1.45;;
22144;SDS011;11238;48.730;11.566;2023-12-20T14:32:15;3.20;;;1.13;;
22144;SDS011;11238;48.730;11.566;2023-12-20T14:34:41;4.20;;;1.35;;